Time;durP1;ratioP1;P1;durP2;ratioP2;P2;SDS_P1;SDS_P2;PMS_P1;PMS_P2;Temp;Humidity;BMP_temperature;BMP_pressure;BME280_temperature;BME280_humidity;BME280_pressure;Samples;Min_cycle;Max_cycle;Signal;HPM_P1;HPM_P2
2021/11/15 00:00:34;;;;;;;3.22;1.77;;;;;;;1.96;61.32;100677.66;4951694;29;20043;-69
2021/11/15 00:03:00;;;;;;;3.50;1.58;;;;;;;1.96;62.51;100675.06;4968463;28;20051;-69
2021/11/15 00:05:26;;;;;;;4.40;1.35;;;;;;;1.83;62.01;100675.38;4958499;28;20059;-73
2021/11/15 00:07:52;;;;;;;2.40;1.30;;;;;;;1.76;63.17;100673.81;4966842;28;20050;-72
2021/11/15 00:10:18;;;;;;;3.45;1.80;;;;;;;1.69;62.63;100674.88;4940303;29;20055;-69
2021/11/15 00:12:46;;;;;;;4.15;1.70;;;;;;;1.65;62.67;100679.28;4956770;29;20774;-71
2021/11/15 00:15:12;;;;;;;3.40;1.60;;;;;;;1.55;63.09;100689.06;4939015;29;20047;-69
2021/11/15 00:17:38;;;;;;;3.45;1.50;;;;;;;1.48;63.07;100686.66;4957612;29;20047;-69
2021/11/15 00:20:06;;;;;;;2.80;1.35;;;;;;;1.56;62.42;100692.56;4923624;29;20050;-68
2021/11/15 00:22:31;;;;;;;2.38;1.00;;;;;;;1.52;61.29;100688.28;4955927;29;20101;-69
2021/11/15 00:24:57;;;;;;;2.40;1.38;;;;;;;1.52;60.62;100696.97;4955157;28;20042;-69
2021/11/15 00:27:23;;;;;;;1.95;0.98;;;;;;;1.51;60.74;100692.66;4960420;28;20448;-70
2021/11/15 00:29:49;;;;;;;2.05;1.08;;;;;;;1.49;60.99;100677.94;4944928;28;20035;-72
2021/11/15 00:32:15;;;;;;;1.98;1.10;;;;;;;1.39;60.29;100699.00;4955741;29;20353;-68
2021/11/15 00:34:40;;;;;;;1.27;0.73;;;;;;;1.51;60.31;100697.00;4965128;28;20411;-70
2021/11/15 00:37:06;;;;;;;3.20;1.10;;;;;;;1.58;60.09;100694.22;4949581;28;20127;-69
2021/11/15 00:39:32;;;;;;;2.15;1.10;;;;;;;1.65;60.61;100704.53;4938064;29;20043;-70
2021/11/15 00:41:58;;;;;;;1.88;1.17;;;;;;;1.66;60.78;100708.81;4955310;28;20043;-75
2021/11/15 00:44:25;;;;;;;2.72;1.23;;;;;;;1.62;60.83;100723.72;4956261;28;20484;-70
2021/11/15 00:46:50;;;;;;;3.20;1.17;;;;;;;1.65;60.23;100707.97;4957500;28;20526;-71
2021/11/15 00:49:16;;;;;;;2.95;1.25;;;;;;;1.65;61.14;100726.22;4973053;28;20047;-69
2021/11/15 00:51:42;;;;;;;3.78;1.30;;;;;;;1.54;60.60;100728.22;4959287;28;20057;-67
2021/11/15 00:54:08;;;;;;;3.22;1.35;;;;;;;1.53;61.00;100718.69;4954708;29;20043;-69
2021/11/15 00:56:33;;;;;;;2.80;1.42;;;;;;;1.45;61.76;100724.91;4954809;29;20422;-69
2021/11/15 00:58:59;;;;;;;2.85;1.35;;;;;;;1.48;61.02;100717.94;4937762;28;20046;-70
2021/11/15 01:01:25;;;;;;;2.45;1.20;;;;;;;1.52;61.08;100730.00;4938094;29;20051;-68
2021/11/15 01:03:51;;;;;;;2.58;1.02;;;;;;;1.57;60.11;100728.13;4965871;28;20519;-69
2021/11/15 01:06:17;;;;;;;3.67;1.30;;;;;;;1.44;60.32;100727.56;4972554;28;20043;-70
2021/11/15 01:08:43;;;;;;;2.92;1.10;;;;;;;1.43;60.17;100739.75;4968643;28;20074;-70
2021/11/15 01:11:09;;;;;;;2.40;1.10;;;;;;;1.40;60.56;100742.41;4960767;28;20628;-68
2021/11/15 01:13:36;;;;;;;2.00;1.00;;;;;;;1.40;61.06;100737.19;4961388;28;20042;-68
2021/11/15 01:16:02;;;;;;;7.90;1.08;;;;;;;1.39;60.32;100745.06;4973066;28;20133;-70
2021/11/15 01:18:28;;;;;;;2.22;1.08;;;;;;;1.37;60.93;100741.63;4972797;28;20043;-68
2021/11/15 01:20:54;;;;;;;2.13;0.85;;;;;;;1.23;59.90;100728.91;4960296;28;20042;-68
2021/11/15 01:23:20;;;;;;;1.30;0.70;;;;;;;1.28;58.96;100750.50;4972779;28;20039;-69
2021/11/15 01:25:46;;;;;;;4.68;1.35;;;;;;;1.25;59.33;100758.41;4968527;28;20051;-70
2021/11/15 01:28:12;;;;;;;0.85;0.52;;;;;;;1.20;58.00;100750.66;4955245;28;20051;-71
2021/11/15 01:30:38;;;;;;;0.77;0.50;;;;;;;1.24;58.33;100759.28;4954034;28;20047;-69
2021/11/15 01:33:04;;;;;;;1.92;0.82;;;;;;;1.21;58.56;100768.03;4974314;28;20134;-70
2021/11/15 01:35:30;;;;;;;0.93;0.60;;;;;;;1.22;57.83;100763.66;4962293;28;20047;-73
2021/11/15 01:37:56;;;;;;;1.20;0.70;;;;;;;1.20;58.04;100776.72;4963126;28;20082;-73
2021/11/15 01:40:25;;;;;;;1.67;0.70;;;;;;;1.25;57.80;100780.09;4955710;28;20129;-70
2021/11/15 01:42:52;;;;;;;0.90;0.45;;;;;;;1.21;58.01;100774.97;4938046;29;20452;-69
2021/11/15 01:45:23;;;;;;;1.13;0.50;;;;;;;1.20;57.66;100765.44;4957703;28;20061;-71
2021/11/15 01:47:54;;;;;;;0.70;0.40;;;;;;;1.15;56.48;100764.66;4976077;28;20030;-73
2021/11/15 01:50:21;;;;;;;8.20;2.53;;;;;;;1.23;57.01;100770.59;4943677;28;20420;-71
2021/11/15 01:52:48;;;;;;;2.95;0.47;;;;;;;1.17;57.15;100768.09;4942913;28;20479;-70
2021/11/15 01:55:15;;;;;;;0.73;0.43;;;;;;;1.06;57.42;100763.97;4945815;28;20054;-70
2021/11/15 01:57:42;;;;;;;1.43;0.50;;;;;;;1.15;57.32;100786.38;4969972;28;20045;-71
2021/11/15 02:00:11;;;;;;;1.63;0.50;;;;;;;1.21;57.15;100788.00;4954022;28;20053;-70
2021/11/15 02:02:38;;;;;;;0.55;0.32;;;;;;;1.21;56.92;100782.78;4953756;28;20066;-73
2021/11/15 02:05:04;;;;;;;0.88;0.50;;;;;;;1.24;58.23;100798.38;4951965;28;20046;-70
2021/11/15 02:07:30;;;;;;;1.23;0.50;;;;;;;1.33;57.52;100803.38;4967115;28;20034;-70
2021/11/15 02:09:56;;;;;;;1.15;0.60;;;;;;;1.25;57.72;100800.94;4956022;28;20137;-69
2021/11/15 02:12:22;;;;;;;4.13;0.88;;;;;;;1.27;58.27;100813.91;4959397;28;20055;-71
2021/11/15 02:14:47;;;;;;;3.50;0.77;;;;;;;1.36;58.84;100818.97;4955636;28;20571;-70
2021/11/15 02:17:13;;;;;;;2.72;0.98;;;;;;;1.36;59.62;100807.66;4955334;28;20043;-70
2021/11/15 02:19:40;;;;;;;2.40;0.77;;;;;;;1.24;59.49;100807.03;4974082;28;20050;-69
2021/11/15 02:22:06;;;;;;;1.38;0.73;;;;;;;1.21;59.19;100824.47;4958308;28;20500;-70
2021/11/15 02:24:32;;;;;;;2.70;0.80;;;;;;;1.28;60.20;100826.06;4957316;28;20050;-69
2021/11/15 02:26:57;;;;;;;2.88;0.90;;;;;;;1.28;59.84;100826.94;4957304;28;20047;-69
2021/11/15 02:29:23;;;;;;;1.75;0.88;;;;;;;1.27;60.74;100832.16;4965371;28;20137;-70
2021/11/15 02:31:49;;;;;;;1.08;0.70;;;;;;;1.27;60.76;100834.78;4951078;29;20047;-69
2021/11/15 02:34:15;;;;;;;1.65;0.70;;;;;;;1.19;60.71;100831.47;4964654;28;20093;-68
2021/11/15 02:36:40;;;;;;;1.55;0.80;;;;;;;1.09;61.06;100834.25;4957056;28;20054;-69
2021/11/15 02:39:06;;;;;;;1.98;0.80;;;;;;;1.20;61.99;100836.66;4954155;28;20086;-68
2021/11/15 02:41:32;;;;;;;1.08;0.98;;;;;;;1.27;61.68;100847.81;4962635;28;20193;-68
2021/11/15 02:44:02;;;;;;;20.60;9.52;;;;;;;1.25;61.48;100850.44;4957082;28;20067;-69
2021/11/15 02:46:28;;;;;;;1.52;0.77;;;;;;;1.17;62.52;100846.28;4954041;28;20571;-70
2021/11/15 02:48:55;;;;;;;1.20;0.80;;;;;;;1.07;63.82;100864.69;4956560;28;20043;-71
2021/11/15 02:51:21;;;;;;;2.53;0.90;;;;;;;1.10;63.94;100864.63;4956783;28;20045;-69
2021/11/15 02:53:47;;;;;;;2.03;1.10;;;;;;;1.07;64.21;100869.91;4955807;28;20133;-69
2021/11/15 02:56:13;;;;;;;3.28;1.20;;;;;;;0.95;64.11;100860.56;4958823;28;20070;-69
2021/11/15 02:58:39;;;;;;;2.13;0.88;;;;;;;0.89;63.97;100859.81;4957183;28;20070;-72
2021/11/15 03:01:08;;;;;;;4.55;0.80;;;;;;;0.92;63.29;100860.63;4958491;28;20117;-68
2021/11/15 03:03:35;;;;;;;0.85;0.43;;;;;;;1.03;63.17;100863.00;4955130;29;20104;-69
2021/11/15 03:06:00;;;;;;;8.13;2.83;;;;;;;0.98;62.18;100866.59;4957884;29;20538;-69
2021/11/15 03:08:27;;;;;;;3.80;1.92;;;;;;;1.03;62.83;100873.44;4940730;29;20099;-70
2021/11/15 03:10:58;;;;;;;1.42;0.80;;;;;;;1.08;62.79;100878.56;4958708;29;20047;-69
2021/11/15 03:13:26;;;;;;;1.40;0.55;;;;;;;1.04;62.43;100874.31;4958901;29;20043;-69
2021/11/15 03:15:53;;;;;;;1.53;0.70;;;;;;;1.06;61.46;100867.31;4960234;29;20062;-72
2021/11/15 03:18:22;;;;;;;1.08;0.70;;;;;;;1.01;62.00;100871.75;4959777;29;20417;-69
2021/11/15 03:20:52;;;;;;;2.05;0.90;;;;;;;1.02;61.65;100874.31;4956816;29;20085;-71
2021/11/15 03:23:20;;;;;;;0.85;0.60;;;;;;;0.97;61.79;100883.97;4958366;29;20106;-72
2021/11/15 03:25:47;;;;;;;0.55;0.40;;;;;;;1.10;61.19;100885.47;4958291;29;20043;-68
2021/11/15 03:28:14;;;;;;;1.38;0.70;;;;;;;1.10;61.42;100890.69;4958187;29;20059;-70
2021/11/15 03:30:41;;;;;;;1.73;0.75;;;;;;;1.03;61.00;100888.22;4956962;29;20051;-70
2021/11/15 03:33:08;;;;;;;2.22;0.63;;;;;;;1.10;61.09;100898.50;4939460;29;20057;-69
2021/11/15 03:35:34;;;;;;;0.88;0.60;;;;;;;1.11;60.05;100896.75;4959302;29;20047;-69
2021/11/15 03:38:00;;;;;;;0.93;0.52;;;;;;;1.08;60.03;100908.06;4957107;29;20135;-68
2021/11/15 03:40:26;;;;;;;1.98;0.50;;;;;;;1.13;59.98;100905.38;4941695;29;20051;-68
2021/11/15 03:42:54;;;;;;;1.58;1.00;;;;;;;1.07;59.85;100895.97;4957867;29;20109;-73
2021/11/15 03:45:21;;;;;;;1.38;0.70;;;;;;;0.99;59.33;100905.66;4928282;29;20071;-72
2021/11/15 03:47:48;;;;;;;2.25;0.65;;;;;;;0.98;59.64;100903.91;4940514;29;20544;-72
2021/11/15 03:50:13;;;;;;;2.55;0.80;;;;;;;0.97;60.02;100907.41;4961741;29;20138;-70
2021/11/15 03:52:41;;;;;;;0.95;0.47;;;;;;;0.96;59.96;100903.09;4957761;29;20134;-71
2021/11/15 03:55:08;;;;;;;1.60;0.70;;;;;;;0.98;60.12;100911.72;4956666;29;20046;-73
2021/11/15 03:57:35;;;;;;;2.17;1.00;;;;;;;1.03;60.58;100909.91;4940821;29;20493;-69
2021/11/15 04:00:02;;;;;;;1.95;0.77;;;;;;;1.08;60.27;100926.31;4937564;29;20047;-70
2021/11/15 04:02:33;;;;;;;2.00;1.30;;;;;;;1.03;60.51;100915.13;4940122;29;20059;-72
2021/11/15 04:05:03;;;;;;;2.75;0.90;;;;;;;1.04;61.54;100918.59;4957850;29;20051;-73
2021/11/15 04:07:43;;;;;;;4.00;1.25;;;;;;;1.05;61.55;100925.53;4958497;29;20039;-71
2021/11/15 04:10:19;;;;;;;3.72;1.10;;;;;;;1.04;61.58;100934.22;4940764;29;20054;-73
2021/11/15 04:12:46;;;;;;;2.65;1.17;;;;;;;1.10;61.56;100937.56;4958073;29;20114;-71
2021/11/15 04:15:13;;;;;;;4.47;1.48;;;;;;;1.04;61.27;100940.28;4939978;29;20070;-71
2021/11/15 04:17:42;;;;;;;9.98;1.67;;;;;;;1.07;61.91;100944.56;4957064;28;20055;-69
2021/11/15 04:20:12;;;;;;;2.80;1.30;;;;;;;1.02;63.27;100954.22;4940514;29;20051;-73
2021/11/15 04:22:38;;;;;;;4.93;1.30;;;;;;;0.97;63.58;100956.91;4957651;29;20105;-69
2021/11/15 04:25:05;;;;;;;5.57;1.42;;;;;;;1.01;64.18;100962.91;4971378;28;20117;-71
2021/11/15 04:27:31;;;;;;;3.42;1.40;;;;;;;0.96;65.31;100970.81;4957499;29;20065;-71
2021/11/15 04:29:57;;;;;;;2.63;1.55;;;;;;;1.04;66.07;100973.31;4957806;28;20496;-71
2021/11/15 04:32:22;;;;;;;7.55;3.78;;;;;;;1.02;65.84;100980.28;4939679;29;20051;-70
2021/11/15 04:34:48;;;;;;;5.68;1.98;;;;;;;1.01;66.29;100994.19;4956889;29;20051;-72
2021/11/15 04:37:14;;;;;;;4.90;1.52;;;;;;;0.99;66.79;100999.41;4957147;29;20045;-69
2021/11/15 04:39:42;;;;;;;14.07;8.98;;;;;;;1.06;66.73;100992.34;4938393;29;20126;-69
2021/11/15 04:42:09;;;;;;;5.20;2.88;;;;;;;1.05;66.55;101014.09;4956550;29;20043;-68
2021/11/15 04:44:35;;;;;;;3.75;1.23;;;;;;;0.91;67.36;101022.09;4956829;29;20051;-75
2021/11/15 04:47:00;;;;;;;2.15;1.40;;;;;;;0.76;68.74;101026.69;4956476;29;20197;-71
2021/11/15 04:49:26;;;;;;;5.72;2.38;;;;;;;0.66;69.91;101025.09;4940904;29;20482;-76
2021/11/15 04:51:52;;;;;;;2.45;1.23;;;;;;;0.64;69.34;101040.72;4955955;29;20086;-71
2021/11/15 04:54:19;;;;;;;2.63;1.25;;;;;;;0.61;67.96;101032.97;4956698;29;20047;-68
2021/11/15 04:56:45;;;;;;;1.20;0.70;;;;;;;0.47;68.24;101051.38;4941128;29;20374;-69
2021/11/15 04:59:11;;;;;;;1.00;0.70;;;;;;;0.48;68.40;101058.28;4957973;29;20133;-72
2021/11/15 05:01:37;;;;;;;2.25;0.77;;;;;;;0.60;67.43;101054.66;4957904;29;20066;-70
2021/11/15 05:04:04;;;;;;;1.30;0.85;;;;;;;0.52;67.79;101053.06;4956813;29;20043;-70
2021/11/15 05:06:30;;;;;;;2.50;0.80;;;;;;;0.48;67.17;101058.28;4925715;29;20106;-71
2021/11/15 05:08:56;;;;;;;3.05;1.63;;;;;;;0.48;67.21;101054.84;4958442;29;20579;-70
2021/11/15 05:11:22;;;;;;;20.27;4.30;;;;;;;0.38;67.46;101061.88;4953929;28;20055;-71
2021/11/15 05:13:48;;;;;;;4.25;1.95;;;;;;;0.22;67.84;101062.97;4939369;29;20035;-68
2021/11/15 05:16:14;;;;;;;4.57;0.90;;;;;;;0.16;68.06;101063.88;4957426;29;20047;-76
2021/11/15 05:18:40;;;;;;;3.60;1.10;;;;;;;0.17;68.06;101077.78;4955691;29;20039;-71
2021/11/15 05:21:06;;;;;;;2.60;1.60;;;;;;;0.20;67.52;101077.72;4941107;29;20063;-68
2021/11/15 05:23:31;;;;;;;4.07;1.00;;;;;;;0.30;67.28;101084.56;4958605;29;20205;-69
2021/11/15 05:25:57;;;;;;;1.75;0.70;;;;;;;0.41;66.38;101092.22;4956016;29;20077;-71
2021/11/15 05:28:24;;;;;;;2.22;0.85;;;;;;;0.51;65.01;101090.38;4955612;29;20099;-72
2021/11/15 05:30:49;;;;;;;2.38;0.85;;;;;;;0.66;64.59;101097.13;4937019;29;20043;-71
2021/11/15 05:33:15;;;;;;;5.75;2.63;;;;;;;0.68;63.93;101101.44;4961037;29;20049;-69
2021/11/15 05:35:41;;;;;;;1.30;1.17;;;;;;;0.67;62.65;101096.25;4960875;29;20058;-71
2021/11/15 05:38:07;;;;;;;1.35;0.73;;;;;;;0.74;63.18;101098.75;4957940;29;20054;-68
2021/11/15 05:40:34;;;;;;;1.17;0.70;;;;;;;0.78;62.39;101113.44;4942817;29;20039;-71
2021/11/15 05:42:59;;;;;;;2.92;0.75;;;;;;;0.76;61.93;101115.22;4958297;29;20039;-71
2021/11/15 05:45:26;;;;;;;2.28;0.75;;;;;;;0.88;61.20;101123.75;4922979;29;20109;-69
2021/11/15 05:47:52;;;;;;;2.35;1.65;;;;;;;0.90;60.57;101122.84;4954193;29;20055;-71
2021/11/15 05:50:20;;;;;;;2.15;1.15;;;;;;;0.91;60.05;101126.28;4954333;29;20578;-71
2021/11/15 05:52:46;;;;;;;1.80;1.00;;;;;;;0.85;60.10;101123.78;4957348;29;20043;-73
2021/11/15 05:55:17;;;;;;;3.50;1.10;;;;;;;0.89;60.06;101133.28;4958788;29;20055;-70
2021/11/15 05:57:43;;;;;;;2.47;1.10;;;;;;;0.90;59.62;101137.63;4959622;29;20177;-70
2021/11/15 06:00:15;;;;;;;3.22;1.08;;;;;;;0.98;59.16;101145.31;4960098;29;20043;-72
2021/11/15 06:02:42;;;;;;;2.03;1.20;;;;;;;1.06;58.61;101140.84;4957129;29;20059;-70
2021/11/15 06:05:08;;;;;;;1.92;1.10;;;;;;;0.95;58.33;101141.88;4960910;29;20043;-71
2021/11/15 06:07:34;;;;;;;4.28;1.95;;;;;;;0.96;58.44;101154.03;4955891;29;20518;-70
2021/11/15 06:10:00;;;;;;;3.20;1.23;;;;;;;0.94;58.34;101139.28;4941466;29;20047;-73
2021/11/15 06:12:26;;;;;;;9.13;5.85;;;;;;;0.84;57.97;101150.72;4941567;29;20380;-68
2021/11/15 06:14:52;;;;;;;3.15;1.20;;;;;;;1.02;57.79;101155.66;4938585;29;20125;-69
2021/11/15 06:17:17;;;;;;;5.82;2.33;;;;;;;1.13;57.49;101161.63;4954819;29;20186;-68
2021/11/15 06:19:43;;;;;;;2.33;1.40;;;;;;;1.25;56.85;101164.94;4957061;29;20263;-70
2021/11/15 06:22:09;;;;;;;2.80;1.48;;;;;;;1.27;56.64;101156.19;4938889;28;20050;-70
2021/11/15 06:24:35;;;;;;;1.80;1.17;;;;;;;1.40;56.09;101158.63;4954651;29;20058;-71
2021/11/15 06:27:01;;;;;;;1.38;1.10;;;;;;;1.39;55.98;101162.97;4938535;29;20054;-69
2021/11/15 06:29:27;;;;;;;2.35;1.75;;;;;;;1.55;56.00;101163.59;4940828;29;20098;-70
2021/11/15 06:31:54;;;;;;;2.72;1.33;;;;;;;1.60;55.38;101166.13;4925591;29;20533;-70
2021/11/15 06:34:20;;;;;;;3.15;1.48;;;;;;;1.76;54.41;101172.81;4944212;29;20138;-76
2021/11/15 06:36:45;;;;;;;4.07;1.70;;;;;;;1.86;54.32;101168.31;4940114;29;20099;-67
2021/11/15 06:39:11;;;;;;;3.95;1.95;;;;;;;1.92;53.94;101172.59;4942176;29;20045;-70
2021/11/15 06:41:37;;;;;;;3.45;1.48;;;;;;;1.91;54.12;101178.69;4927255;29;20049;-72
2021/11/15 06:44:05;;;;;;;2.38;1.27;;;;;;;1.90;53.75;101179.56;4959789;29;20073;-69
2021/11/15 06:46:31;;;;;;;7.65;1.70;;;;;;;1.95;54.39;101190.78;4955642;29;20055;-71
2021/11/15 06:48:57;;;;;;;4.30;1.55;;;;;;;1.87;53.96;101187.44;4962763;29;20054;-75
2021/11/15 06:51:24;;;;;;;2.20;1.30;;;;;;;1.93;54.17;101200.38;4941879;29;20051;-72
2021/11/15 06:53:50;;;;;;;3.60;1.80;;;;;;;1.97;55.01;101202.06;4959198;29;20043;-71
2021/11/15 06:56:17;;;;;;;2.95;1.70;;;;;;;2.03;54.76;101211.53;4941462;29;20186;-70
2021/11/15 06:58:42;;;;;;;4.95;2.45;;;;;;;2.03;55.07;101212.41;4940933;29;20047;-72
2021/11/15 07:01:08;;;;;;;5.28;2.13;;;;;;;1.95;55.67;101214.25;4956411;28;20550;-70
2021/11/15 07:03:34;;;;;;;3.35;2.05;;;;;;;1.88;56.61;101223.06;4938851;29;20118;-70
2021/11/15 07:06:00;;;;;;;5.38;1.67;;;;;;;1.90;56.27;101223.91;4954874;29;20114;-71
2021/11/15 07:08:27;;;;;;;3.97;2.08;;;;;;;1.76;56.00;101234.56;4956861;29;20043;-68
2021/11/15 07:10:53;;;;;;;4.47;2.17;;;;;;;1.78;56.96;101238.88;4954272;29;20051;-71
2021/11/15 07:13:19;;;;;;;4.35;2.17;;;;;;;1.64;56.59;101237.38;4960080;29;20094;-70
2021/11/15 07:15:45;;;;;;;5.53;2.28;;;;;;;1.73;56.99;101251.13;4955463;29;20040;-70
2021/11/15 07:18:11;;;;;;;4.20;2.20;;;;;;;1.77;57.01;101252.81;4942215;29;20047;-71
2021/11/15 07:20:37;;;;;;;5.43;2.58;;;;;;;1.87;57.02;101260.47;4956703;29;20053;-69
2021/11/15 07:23:04;;;;;;;3.47;2.03;;;;;;;1.76;56.35;101264.13;4941181;29;20742;-70
2021/11/15 07:25:30;;;;;;;5.13;2.10;;;;;;;1.76;57.21;101266.72;4955929;29;20070;-68
2021/11/15 07:27:56;;;;;;;6.38;2.33;;;;;;;1.70;56.84;101261.59;4955094;29;20089;-70
2021/11/15 07:30:22;;;;;;;4.20;2.42;;;;;;;1.62;57.12;101273.91;4938828;29;20108;-73
2021/11/15 07:32:50;;;;;;;4.63;1.83;;;;;;;1.58;57.42;101277.41;4956089;29;20074;-69
2021/11/15 07:35:16;;;;;;;3.22;1.73;;;;;;;1.56;57.61;101280.06;4924100;29;20093;-70
2021/11/15 07:37:42;;;;;;;5.18;2.33;;;;;;;1.56;58.13;101287.03;4927894;29;20043;-72
2021/11/15 07:40:10;;;;;;;7.20;2.55;;;;;;;1.55;57.70;101304.41;4939170;29;20515;-70
2021/11/15 07:42:36;;;;;;;6.32;2.25;;;;;;;1.62;57.88;101305.19;4964346;29;20054;-72
2021/11/15 07:45:03;;;;;;;8.90;2.50;;;;;;;1.57;57.76;101314.81;4943720;29;20043;-69
2021/11/15 07:47:29;;;;;;;3.47;2.00;;;;;;;1.65;58.02;101319.94;4939271;29;20069;-68
2021/11/15 07:49:55;;;;;;;4.72;2.63;;;;;;;1.68;57.86;101319.88;4963163;29;20142;-72
2021/11/15 07:52:22;;;;;;;4.43;2.35;;;;;;;1.63;57.86;101325.16;4965266;29;20078;-73
2021/11/15 07:54:48;;;;;;;6.53;1.90;;;;;;;1.68;57.25;101330.31;4944403;29;20591;-70
2021/11/15 07:57:16;;;;;;;4.20;1.80;;;;;;;1.47;57.47;101340.16;4942476;29;20066;-71
2021/11/15 07:59:43;;;;;;;2.40;1.10;;;;;;;1.24;57.96;101343.88;4964926;29;20089;-70
2021/11/15 08:02:10;;;;;;;2.88;1.25;;;;;;;1.36;56.95;101342.00;4957006;29;20154;-71
2021/11/15 08:04:37;;;;;;;;;;;;;;;1.37;55.78;101352.44;4925221;29;20043;-72
2021/11/15 08:07:03;;;;;;;3.28;1.48;;;;;;;1.50;55.73;101362.72;4946642;29;19997;-70
2021/11/15 08:09:29;;;;;;;3.38;1.58;;;;;;;1.59;55.14;101362.59;4960886;29;20102;-71
2021/11/15 08:12:01;;;;;;;3.58;0.93;;;;;;;1.63;55.73;101364.25;4959460;29;20130;-69
2021/11/15 08:14:26;;;;;;;3.42;1.40;;;;;;;1.66;54.84;101369.47;4945389;29;20043;-72
2021/11/15 08:16:52;;;;;;;4.43;2.17;;;;;;;1.67;55.37;101376.41;4943320;29;20094;-70
2021/11/15 08:19:18;;;;;;;7.13;1.70;;;;;;;1.69;55.49;101369.41;4957328;29;20071;-70
2021/11/15 08:21:44;;;;;;;3.72;2.17;;;;;;;1.73;55.94;101384.16;4939049;29;20047;-71
2021/11/15 08:24:39;;;;;;;4.95;1.73;;;;;;;1.64;55.75;101379.03;4966415;29;20054;-69
2021/11/15 08:27:05;;;;;;;5.85;2.05;;;;;;;1.66;56.34;101379.88;4947809;29;20075;-67
2021/11/15 08:29:32;;;;;;;10.32;2.45;;;;;;;1.74;56.16;101380.63;4945938;29;20070;-72
2021/11/15 08:32:05;;;;;;;6.53;2.42;;;;;;;1.83;56.06;101376.19;4944564;29;20054;-70
2021/11/15 08:34:31;;;;;;;7.93;2.53;;;;;;;1.93;55.45;101373.44;4960894;29;20500;-70
2021/11/15 08:36:57;;;;;;;17.15;3.53;;;;;;;1.98;55.72;101383.84;4939190;29;20040;-69
2021/11/15 08:39:26;;;;;;;8.20;2.35;;;;;;;2.00;55.85;101384.66;4940333;29;20078;-69
2021/11/15 08:41:57;;;;;;;7.20;2.65;;;;;;;2.06;55.73;101394.16;4941202;29;20043;-71
2021/11/15 08:44:24;;;;;;;8.63;4.20;;;;;;;2.13;55.86;101405.38;4926018;29;20048;-70
2021/11/15 08:46:52;;;;;;;8.75;2.70;;;;;;;2.17;55.89;101394.88;4940729;29;20052;-70
2021/11/15 08:49:22;;;;;;;5.03;2.15;;;;;;;2.06;55.68;101410.66;4938575;29;20184;-71
2021/11/15 08:51:48;;;;;;;6.90;2.60;;;;;;;1.94;55.46;101406.50;4939687;29;20075;-70
2021/11/15 08:54:16;;;;;;;4.50;2.25;;;;;;;2.00;55.73;101400.31;4936075;29;20052;-70
2021/11/15 08:56:44;;;;;;;6.13;2.45;;;;;;;2.04;55.39;101402.00;4938958;29;20109;-70
2021/11/15 08:59:10;;;;;;;5.78;1.70;;;;;;;1.87;55.61;101406.56;4935955;29;20135;-69
2021/11/15 09:01:37;;;;;;;4.43;2.20;;;;;;;1.85;55.77;101424.00;4904177;29;20401;-70
2021/11/15 09:04:03;;;;;;;3.42;1.80;;;;;;;1.82;55.30;101429.25;4922223;29;20509;-71
2021/11/15 09:06:34;;;;;;;4.35;1.90;;;;;;;1.72;55.47;101431.97;4939986;29;20498;-70
2021/11/15 09:09:00;;;;;;;6.47;2.20;;;;;;;1.83;55.87;101446.63;4923403;29;20059;-71
2021/11/15 09:11:26;;;;;;;3.55;1.83;;;;;;;1.84;55.83;101443.16;4937758;29;20048;-74
2021/11/15 09:13:54;;;;;;;4.25;1.77;;;;;;;1.79;55.31;101443.19;4938230;29;20044;-73
2021/11/15 09:16:20;;;;;;;3.25;1.63;;;;;;;1.81;55.43;101453.59;4904466;29;20048;-70
2021/11/15 09:18:46;;;;;;;4.82;1.60;;;;;;;1.67;55.18;101464.19;4937266;29;20106;-69
2021/11/15 09:21:13;;;;;;;2.75;1.40;;;;;;;1.65;55.24;101456.41;4937934;29;20139;-68
2021/11/15 09:23:41;;;;;;;3.53;1.48;;;;;;;1.67;55.33;101454.66;4907087;29;20048;-72
2021/11/15 09:26:09;;;;;;;5.05;2.10;;;;;;;1.65;55.28;101452.94;4936665;29;20098;-68
2021/11/15 09:28:36;;;;;;;4.57;1.42;;;;;;;1.74;54.12;101471.09;4924370;29;20138;-71
2021/11/15 09:31:03;;;;;;;2.55;1.30;;;;;;;1.85;54.14;101470.97;4923419;29;20520;-68
2021/11/15 09:33:28;;;;;;;3.58;2.00;;;;;;;1.89;53.69;101470.03;4944299;29;20055;-71
2021/11/15 09:35:56;;;;;;;2.60;1.23;;;;;;;1.92;53.94;101475.25;4954259;29;20476;-72
2021/11/15 09:38:23;;;;;;;6.28;3.10;;;;;;;1.98;54.71;101469.94;4955176;29;20053;-71
2021/11/15 09:40:56;;;;;;;4.22;2.00;;;;;;;2.03;54.63;101477.69;4957926;29;20047;-67
2021/11/15 09:43:34;;;;;;;2.95;1.67;;;;;;;2.24;54.05;101479.16;4955512;29;20055;-72
2021/11/15 09:46:08;;;;;;;5.97;2.15;;;;;;;2.24;54.46;101487.00;4938150;29;20063;-72
2021/11/15 09:48:36;;;;;;;2.72;1.30;;;;;;;2.28;53.19;101483.47;4956600;29;20606;-72
2021/11/15 09:51:03;;;;;;;1.80;1.30;;;;;;;2.42;53.07;101491.97;4941599;29;20044;-74
2021/11/15 09:53:30;;;;;;;3.65;2.22;;;;;;;2.64;52.54;101491.69;4960339;29;20102;-74
2021/11/15 09:55:56;;;;;;;8.88;1.88;;;;;;;2.64;52.57;101494.31;4937886;29;20461;-70
2021/11/15 09:58:23;;;;;;;3.05;1.20;;;;;;;2.81;52.44;101493.19;4958709;28;20756;-72
2021/11/15 10:00:49;;;;;;;4.03;2.00;;;;;;;2.77;52.90;101488.88;4941014;29;20073;-69
2021/11/15 10:03:16;;;;;;;4.05;1.88;;;;;;;2.78;52.95;101503.66;4960468;29;20078;-73
2021/11/15 10:05:44;;;;;;;6.20;2.28;;;;;;;2.66;53.14;101507.34;4958821;29;20475;-73
2021/11/15 10:08:12;;;;;;;6.13;3.40;;;;;;;2.66;53.78;101505.56;4954841;29;20058;-72
2021/11/15 10:10:57;;;;;;;4.78;2.05;;;;;;;2.88;53.25;101506.13;4953941;29;20043;-71
2021/11/15 10:13:31;;;;;;;6.18;2.13;;;;;;;2.70;53.76;101511.63;4960381;29;20504;-74
2021/11/15 10:16:05;;;;;;;6.50;1.98;;;;;;;2.55;53.20;101507.47;4956215;29;20046;-70
2021/11/15 10:18:35;;;;;;;4.88;1.40;;;;;;;2.36;52.99;101520.78;4956440;29;20079;-72
2021/11/15 10:21:14;;;;;;;2.53;1.52;;;;;;;2.33;52.83;101528.66;4955585;29;20134;-74
2021/11/15 10:23:56;;;;;;;4.32;1.35;;;;;;;2.22;53.12;101523.56;4940216;29;20047;-70
2021/11/15 10:26:28;;;;;;;7.78;1.50;;;;;;;2.17;52.56;101527.09;4960515;29;20142;-70
2021/11/15 10:29:02;;;;;;;3.20;1.40;;;;;;;2.37;52.11;101530.34;4959502;29;20053;-66
2021/11/15 10:31:45;;;;;;;7.80;1.40;;;;;;;2.52;51.83;101538.88;4960666;29;20046;-72
2021/11/15 10:34:14;;;;;;;3.22;1.20;;;;;;;2.49;52.45;101533.69;4961930;29;20047;-70
2021/11/15 10:36:49;;;;;;;8.23;1.90;;;;;;;2.54;52.29;101540.59;4954189;29;20043;-71
2021/11/15 10:39:39;;;;;;;4.30;1.40;;;;;;;2.36;52.92;101539.06;4940303;29;20051;-69
2021/11/15 10:42:12;;;;;;;4.28;1.50;;;;;;;2.57;52.60;101547.50;4939808;29;20043;-76
2021/11/15 10:44:47;;;;;;;5.68;2.10;;;;;;;2.46;52.68;101549.41;4957213;29;20035;-71
2021/11/15 10:47:14;;;;;;;11.30;2.35;;;;;;;2.49;53.08;101541.50;4960354;29;20058;-74
2021/11/15 10:49:41;;;;;;;13.00;4.25;;;;;;;2.57;53.02;101547.50;4946041;29;20042;-70
2021/11/15 10:52:13;;;;;;;13.05;2.38;;;;;;;2.58;54.08;101544.88;4958975;29;20058;-76
2021/11/15 10:55:03;;;;;;;6.57;2.15;;;;;;;2.51;54.52;101548.44;4941166;29;20591;-70
2021/11/15 10:57:39;;;;;;;11.32;2.80;;;;;;;2.43;54.13;101555.53;4944948;29;20039;-73
2021/11/15 11:00:07;;;;;;;6.18;1.67;;;;;;;2.46;53.97;101550.25;4955104;29;20043;-72
2021/11/15 11:02:38;;;;;;;4.47;2.10;;;;;;;2.24;53.04;101554.88;4940800;29;20141;-71
2021/11/15 11:05:10;;;;;;;14.20;1.92;;;;;;;2.32;53.10;101558.25;4953412;29;20043;-71
2021/11/15 11:07:38;;;;;;;20.38;2.53;;;;;;;2.31;53.63;101561.75;4961227;29;20046;-72
2021/11/15 11:10:08;;;;;;;34.20;3.45;;;;;;;2.29;53.30;101558.28;4944534;29;20043;-71
2021/11/15 11:12:36;;;;;;;16.58;2.40;;;;;;;2.27;53.49;101557.47;4962973;29;20113;-70
2021/11/15 11:15:36;;;;;;;10.27;2.45;;;;;;;2.30;53.49;101565.25;4956673;29;20051;-73
2021/11/15 11:18:45;;;;;;;11.05;2.63;;;;;;;2.30;53.95;101577.44;4958062;29;20055;-69
2021/11/15 11:24:38;;;;;;;9.15;2.60;;;;;;;2.13;53.95;101578.50;4940530;29;20047;-73
2021/11/15 11:27:07;;;;;;;4.57;1.65;;;;;;;2.06;53.91;101575.09;4960301;29;20460;-70
2021/11/15 11:29:37;;;;;;;13.85;2.20;;;;;;;2.07;53.90;101586.41;4942759;29;20051;-71
2021/11/15 11:32:11;;;;;;;20.98;2.50;;;;;;;2.09;54.36;101582.91;4959820;29;20051;-71
2021/11/15 11:34:38;;;;;;;11.82;2.20;;;;;;;2.07;53.79;101583.78;4957896;29;20049;-71
2021/11/15 11:37:10;;;;;;;17.73;2.10;;;;;;;2.09;53.87;101582.91;4943306;29;20035;-72
2021/11/15 11:39:37;;;;;;;25.45;3.83;;;;;;;2.07;53.68;101582.03;4960868;29;20050;-70